Time;durP1;ratioP1;P1;durP2;ratioP2;P2;SDS_P1;SDS_P2;PMS_P1;PMS_P2;Temp;Humidity;BMP_temperature;BMP_pressure;BME280_temperature;BME280_humidity;BME280_pressure;Samples;Min_cycle;Max_cycle;Signal;HPM_P1;HPM_P2
2022/04/02 00:02:06;;;;;;;9.68;3.90;;;0.10;99.90;;;;;;5084775;27;20977;-61
2022/04/02 00:04:46;;;;;;;12.40;3.80;;;0.10;99.90;;;;;;5105472;27;20545;-61
2022/04/02 00:07:26;;;;;;;16.85;3.33;;;0.00;99.90;;;;;;5084469;28;20676;-61
2022/04/02 00:10:07;;;;;;;15.07;4.00;;;0.00;99.90;;;;;;5069975;27;20569;-61
2022/04/02 00:12:47;;;;;;;7.40;3.70;;;0.00;99.90;;;;;;5084540;27;20551;-61
2022/04/02 00:15:27;;;;;;;7.80;3.78;;;0.00;99.90;;;;;;5084704;27;20581;-61
2022/04/02 00:18:07;;;;;;;7.95;3.63;;;0.00;99.90;;;;;;5084629;27;20548;-61
2022/04/02 00:20:46;;;;;;;14.07;4.55;;;0.00;99.90;;;;;;5145479;27;21067;-61
2022/04/02 00:23:43;;;;;;;14.23;4.32;;;0.00;99.90;;;;;;5104958;27;20649;-61
2022/04/02 00:26:24;;;;;;;9.38;3.78;;;0.00;99.90;;;;;;5125475;27;20548;-61
2022/04/02 00:29:05;;;;;;;7.25;4.75;;;0.00;99.90;;;;;;5084081;27;20589;-61
2022/04/02 00:31:45;;;;;;;14.55;4.85;;;0.00;99.90;;;;;;5084685;28;20863;-61
2022/04/02 00:34:26;;;;;;;12.27;4.55;;;-0.10;99.90;;;;;;5084943;27;20555;-61
2022/04/02 00:37:05;;;;;;;10.40;5.18;;;-0.10;99.90;;;;;;5084554;28;20546;-61
2022/04/02 00:39:44;;;;;;;7.38;4.72;;;-0.10;99.90;;;;;;5144719;27;20885;-61
2022/04/02 00:42:24;;;;;;;10.77;4.55;;;-0.10;99.90;;;;;;5084739;28;21054;-61
2022/04/02 00:45:05;;;;;;;9.90;4.75;;;-0.10;99.90;;;;;;5084539;27;21116;-61
2022/04/02 00:47:44;;;;;;;12.18;4.68;;;-0.10;99.90;;;;;;5084665;28;20679;-61
2022/04/02 00:50:24;;;;;;;7.55;5.13;;;-0.10;99.90;;;;;;5084145;28;20564;-61
2022/04/02 00:53:04;;;;;;;12.90;5.38;;;-0.10;99.90;;;;;;5145060;27;20534;-61
2022/04/02 00:55:44;;;;;;;5.38;4.57;;;-0.10;99.90;;;;;;5084421;27;20577;-61
2022/04/02 00:58:23;;;;;;;8.40;4.60;;;-0.10;99.90;;;;;;5104942;27;21110;-61
2022/04/02 01:01:03;;;;;;;11.45;5.18;;;-0.20;99.90;;;;;;5083783;27;20581;-61
2022/04/02 01:03:43;;;;;;;10.93;5.32;;;-0.20;99.90;;;;;;5084933;28;20581;-61
2022/04/02 01:06:23;;;;;;;9.98;5.18;;;-0.20;99.90;;;;;;5126133;27;20562;-61
2022/04/02 01:09:03;;;;;;;12.10;4.57;;;-0.20;99.90;;;;;;5111736;27;21083;-61
2022/04/02 01:11:44;;;;;;;7.80;5.03;;;-0.20;99.90;;;;;;5084820;27;21069;-61
2022/04/02 01:14:24;;;;;;;6.60;5.20;;;-0.20;99.90;;;;;;5105162;27;20538;-61
2022/04/02 01:17:05;;;;;;;8.85;5.00;;;-0.20;99.90;;;;;;5105253;27;20567;-61
2022/04/02 01:19:43;;;;;;;7.00;6.07;;;-0.20;99.90;;;;;;5083767;28;20672;-61
2022/04/02 01:22:24;;;;;;;9.30;5.60;;;-0.10;99.90;;;;;;5105121;27;20553;-61
2022/04/02 01:25:05;;;;;;;11.80;5.55;;;-0.20;99.90;;;;;;5105160;27;20554;-61
2022/04/02 01:27:45;;;;;;;9.15;5.55;;;-0.20;99.90;;;;;;5084862;28;21075;-61
2022/04/02 01:30:36;;;;;;;12.95;5.50;;;-0.20;99.90;;;;;;5083949;27;20604;-61
2022/04/02 01:33:16;;;;;;;9.60;5.28;;;-0.20;99.90;;;;;;5105602;27;20545;-61
2022/04/02 01:36:01;;;;;;;10.38;5.28;;;-0.20;99.90;;;;;;5105211;27;20557;-61
2022/04/02 01:38:41;;;;;;;12.43;6.10;;;-0.20;99.90;;;;;;5146328;27;20873;-61
2022/04/02 01:41:21;;;;;;;9.75;4.78;;;-0.20;99.90;;;;;;5145526;27;20550;-61
2022/04/02 01:44:00;;;;;;;7.13;5.55;;;-0.20;99.90;;;;;;5084838;28;20547;-61
2022/04/02 01:46:40;;;;;;;7.28;5.13;;;-0.10;99.90;;;;;;5084864;27;20569;-61
2022/04/02 01:49:20;;;;;;;11.90;5.43;;;-0.20;99.90;;;;;;5104319;27;20550;-61
2022/04/02 01:52:00;;;;;;;8.52;5.32;;;-0.20;99.90;;;;;;5083190;28;20898;-61
2022/04/02 01:54:40;;;;;;;7.53;4.68;;;-0.20;99.90;;;;;;5105107;27;20602;-61
2022/04/02 01:57:20;;;;;;;10.02;5.22;;;-0.20;99.90;;;;;;5078101;27;20575;-61
2022/04/02 01:59:59;;;;;;;8.07;5.47;;;-0.20;99.90;;;;;;5164551;27;20968;-61
2022/04/02 02:02:39;;;;;;;8.95;4.90;;;-0.20;99.90;;;;;;5084866;27;20547;-61
2022/04/02 02:05:19;;;;;;;10.93;4.80;;;-0.20;99.90;;;;;;5124632;27;20915;-61
2022/04/02 02:07:59;;;;;;;12.63;5.60;;;-0.20;99.90;;;;;;5104261;27;20549;-61
2022/04/02 02:10:39;;;;;;;9.98;4.95;;;-0.20;99.90;;;;;;5162689;27;20882;-61
2022/04/02 02:13:20;;;;;;;12.02;4.55;;;-0.20;99.90;;;;;;5083970;27;20581;-61
2022/04/02 02:16:00;;;;;;;6.70;4.70;;;-0.20;99.90;;;;;;5104170;27;20769;-61
2022/04/02 02:18:39;;;;;;;7.22;4.65;;;-0.20;99.90;;;;;;5084032;27;20994;-61
2022/04/02 02:21:19;;;;;;;5.30;4.70;;;-0.20;99.90;;;;;;5166386;27;20564;-61
2022/04/02 02:23:59;;;;;;;14.65;4.45;;;-0.20;99.90;;;;;;5084612;28;20552;-61
2022/04/02 02:26:39;;;;;;;13.23;5.32;;;-0.30;99.90;;;;;;5104758;27;20702;-60
2022/04/02 02:29:19;;;;;;;9.32;4.47;;;-0.30;99.90;;;;;;5103547;27;21083;-61
2022/04/02 02:31:59;;;;;;;10.48;4.25;;;-0.30;99.90;;;;;;5125669;27;20536;-61
2022/04/02 02:37:37;;;;;;;6.50;4.47;;;-0.30;99.90;;;;;;5105274;27;20930;-61
2022/04/02 02:40:17;;;;;;;8.48;4.18;;;-0.30;99.90;;;;;;5063266;28;20610;-61
2022/04/02 02:42:58;;;;;;;4.93;4.07;;;-0.30;99.90;;;;;;5146492;27;20538;-61
2022/04/02 02:45:37;;;;;;;8.75;3.80;;;-0.30;99.90;;;;;;5104654;27;20571;-61
2022/04/02 02:48:17;;;;;;;9.52;4.70;;;-0.30;99.90;;;;;;5104480;27;21038;-61
2022/04/02 02:50:57;;;;;;;11.30;3.97;;;-0.30;99.90;;;;;;5083876;28;21104;-61
2022/04/02 02:53:36;;;;;;;9.90;3.35;;;-0.30;99.90;;;;;;5145697;27;20546;-61
2022/04/02 02:56:16;;;;;;;7.72;4.18;;;-0.20;99.90;;;;;;5084275;27;20582;-61
2022/04/02 02:58:56;;;;;;;12.02;3.20;;;-0.20;99.90;;;;;;5084425;27;20593;-61
2022/04/02 03:01:36;;;;;;;10.88;3.50;;;-0.20;99.90;;;;;;5083766;27;20581;-61
2022/04/02 03:04:18;;;;;;;9.05;3.42;;;-0.20;99.90;;;;;;5084664;28;21189;-61
2022/04/02 03:06:57;;;;;;;16.27;4.28;;;-0.20;99.90;;;;;;5125910;27;20671;-61
2022/04/02 03:09:37;;;;;;;9.60;3.45;;;-0.20;99.90;;;;;;5056900;28;20596;-61
2022/04/02 03:12:17;;;;;;;6.43;2.75;;;-0.30;99.90;;;;;;5083604;28;21018;-61
2022/04/02 03:14:57;;;;;;;6.95;3.47;;;-0.30;99.90;;;;;;5104194;27;21091;-61
2022/04/02 03:17:37;;;;;;;9.20;3.80;;;-0.30;99.90;;;;;;5105160;27;20553;-61
2022/04/02 03:20:18;;;;;;;6.28;3.15;;;-0.40;99.90;;;;;;5082893;27;20576;-61
2022/04/02 03:22:58;;;;;;;12.10;3.67;;;-0.40;99.90;;;;;;5083934;28;20543;-61
2022/04/02 03:25:38;;;;;;;10.07;3.30;;;-0.40;99.90;;;;;;5084525;27;20573;-61
2022/04/02 03:28:18;;;;;;;8.95;3.58;;;-0.40;99.90;;;;;;5145684;27;20603;-61
2022/04/02 03:30:57;;;;;;;7.72;3.95;;;-0.40;99.90;;;;;;5105163;27;20573;-61
2022/04/02 03:33:37;;;;;;;10.93;4.68;;;-0.50;99.90;;;;;;5084717;27;20920;-61
2022/04/02 03:36:18;;;;;;;7.65;3.70;;;-0.50;99.90;;;;;;5105219;27;20666;-61
2022/04/02 03:38:57;;;;;;;5.57;3.85;;;-0.50;99.90;;;;;;5098371;27;20570;-61
2022/04/02 03:41:36;;;;;;;6.30;3.85;;;-0.50;99.90;;;;;;5085169;27;20573;-61
2022/04/02 03:44:17;;;;;;;11.88;4.45;;;-0.50;99.90;;;;;;5146386;27;20534;-61
2022/04/02 03:47:11;;;;;;;8.65;3.40;;;-0.50;99.90;;;;;;5146994;27;21050;-61
2022/04/02 03:49:51;;;;;;;7.80;3.92;;;-0.50;99.90;;;;;;5124767;27;20563;-61
2022/04/02 03:52:30;;;;;;;6.45;3.90;;;-0.60;99.90;;;;;;5125060;27;21125;-61
2022/04/02 03:55:10;;;;;;;6.80;3.38;;;-0.60;99.90;;;;;;5085151;27;20573;-61
2022/04/02 03:57:50;;;;;;;9.02;3.78;;;-0.60;99.90;;;;;;5085344;28;21044;-61
2022/04/02 04:00:30;;;;;;;6.70;3.38;;;-0.70;99.90;;;;;;5083938;27;20559;-61
2022/04/02 04:03:10;;;;;;;10.18;3.22;;;-0.70;99.90;;;;;;5085037;27;20570;-61
2022/04/02 04:05:49;;;;;;;7.82;3.42;;;-0.80;99.90;;;;;;5105188;27;20596;-61
2022/04/02 04:08:29;;;;;;;7.60;3.33;;;-0.90;99.90;;;;;;5084720;27;20570;-61
2022/04/02 04:11:10;;;;;;;5.50;3.20;;;-0.90;99.90;;;;;;5083926;27;20973;-61
2022/04/02 04:13:50;;;;;;;9.20;3.40;;;-1.00;99.90;;;;;;5084036;27;20552;-61
2022/04/02 04:16:30;;;;;;;9.35;3.38;;;-1.00;99.90;;;;;;5084797;27;20577;-61
2022/04/02 04:19:11;;;;;;;12.32;3.75;;;-1.00;99.90;;;;;;5084250;28;21084;-61
2022/04/02 04:21:50;;;;;;;10.35;3.35;;;-1.10;99.90;;;;;;5146522;27;20546;-61
2022/04/02 04:24:30;;;;;;;7.38;3.55;;;-1.10;99.90;;;;;;5084437;27;20585;-61
2022/04/02 04:27:10;;;;;;;8.25;3.35;;;-1.10;99.90;;;;;;5085025;27;20553;-61
2022/04/02 04:29:49;;;;;;;4.30;3.72;;;-1.20;99.90;;;;;;5083557;28;20569;-61
2022/04/02 04:32:30;;;;;;;4.50;4.10;;;-1.20;99.90;;;;;;5105337;27;20542;-61
2022/04/02 04:35:10;;;;;;;4.50;3.55;;;-1.20;99.90;;;;;;5105182;27;20538;-61
2022/04/02 04:37:49;;;;;;;5.55;3.45;;;-1.30;99.90;;;;;;5105648;27;20530;-61
2022/04/02 04:40:29;;;;;;;6.68;4.10;;;-1.30;99.90;;;;;;5084525;27;20879;-61
2022/04/02 04:43:09;;;;;;;5.88;3.47;;;-1.30;99.90;;;;;;5105489;27;20557;-61
2022/04/02 04:45:48;;;;;;;8.30;3.70;;;-1.30;99.90;;;;;;5105369;27;20607;-61
2022/04/02 04:48:28;;;;;;;6.25;3.50;;;-1.30;99.90;;;;;;5105102;27;20549;-61
2022/04/02 04:51:09;;;;;;;5.63;3.50;;;-1.30;99.90;;;;;;5123344;27;20560;-61
2022/04/02 04:53:49;;;;;;;7.40;4.25;;;-1.30;99.90;;;;;;5146655;27;20554;-61
2022/04/02 04:56:29;;;;;;;7.00;4.22;;;-1.30;99.90;;;;;;5085012;27;20554;-61
2022/04/02 04:59:09;;;;;;;7.45;3.80;;;-1.30;99.90;;;;;;5084009;27;20600;-60
2022/04/02 05:01:49;;;;;;;7.82;4.22;;;-1.30;99.90;;;;;;5084715;28;20568;-61
2022/04/02 05:04:30;;;;;;;5.13;4.05;;;-1.30;99.90;;;;;;5084738;27;20583;-61
2022/04/02 05:07:10;;;;;;;5.55;3.88;;;-1.30;99.90;;;;;;5105367;27;20564;-61
2022/04/02 05:09:50;;;;;;;7.35;4.03;;;-1.20;99.90;;;;;;5083536;28;20680;-61
2022/04/02 05:12:30;;;;;;;4.80;3.38;;;-1.20;99.90;;;;;;5084769;27;20561;-61
2022/04/02 05:15:10;;;;;;;11.00;4.55;;;-1.10;99.90;;;;;;5104123;27;21074;-61
2022/04/02 05:17:50;;;;;;;6.55;3.60;;;-1.10;99.90;;;;;;5084778;28;21115;-61
2022/04/02 05:20:29;;;;;;;8.57;4.47;;;-1.00;99.90;;;;;;5124722;27;20552;-61
2022/04/02 05:23:10;;;;;;;3.88;3.30;;;-1.00;99.90;;;;;;5105374;27;20551;-61
2022/04/02 05:25:49;;;;;;;5.85;4.10;;;-0.90;99.90;;;;;;5085004;27;20565;-61
2022/04/02 05:28:29;;;;;;;6.20;3.85;;;-0.80;99.90;;;;;;5084430;27;20543;-61
2022/04/02 05:31:09;;;;;;;9.05;4.00;;;-0.80;99.90;;;;;;5084074;27;21087;-61
2022/04/02 05:33:48;;;;;;;8.35;3.45;;;-0.70;99.90;;;;;;5070995;28;20656;-61
2022/04/02 05:36:28;;;;;;;4.22;3.78;;;-0.60;99.90;;;;;;5084437;28;20563;-61
2022/04/02 05:39:08;;;;;;;5.72;3.60;;;-0.60;99.90;;;;;;5083412;27;20573;-61
2022/04/02 05:41:48;;;;;;;6.93;4.35;;;-0.50;99.90;;;;;;5084662;27;20561;-61
2022/04/02 05:44:29;;;;;;;7.60;3.85;;;-0.50;99.90;;;;;;5084102;27;20609;-61
2022/04/02 05:47:09;;;;;;;7.20;4.38;;;-0.40;99.90;;;;;;5084723;27;20929;-61
2022/04/02 05:49:51;;;;;;;4.55;3.53;;;-0.40;99.90;;;;;;5145338;27;20689;-61
2022/04/02 05:52:31;;;;;;;4.05;3.65;;;-0.40;99.90;;;;;;5103961;27;20591;-61
2022/04/02 05:55:12;;;;;;;4.65;3.97;;;-0.30;99.90;;;;;;5145565;27;20539;-61
2022/04/02 05:57:52;;;;;;;8.13;3.78;;;-0.30;99.90;;;;;;5105685;27;21386;-61
2022/04/02 06:00:32;;;;;;;5.55;3.72;;;-0.30;99.90;;;;;;5124445;27;20564;-61
2022/04/02 06:03:14;;;;;;;6.40;3.83;;;-0.30;99.90;;;;;;5085200;27;20574;-61
2022/04/02 06:05:54;;;;;;;7.55;3.65;;;-0.20;99.90;;;;;;5125632;27;20551;-60
2022/04/02 06:08:34;;;;;;;7.32;4.75;;;-0.20;99.90;;;;;;5104397;27;20564;-61
2022/04/02 06:11:14;;;;;;;6.95;4.50;;;-0.20;99.90;;;;;;5124765;27;20878;-61
2022/04/02 06:13:54;;;;;;;8.05;4.68;;;-0.10;99.90;;;;;;5083838;27;20612;-60
2022/04/02 06:16:34;;;;;;;4.80;4.15;;;-0.10;99.90;;;;;;5146285;27;20966;-61
2022/04/02 06:19:17;;;;;;;6.75;5.00;;;-0.10;99.90;;;;;;5077996;28;20579;-61
2022/04/02 06:21:56;;;;;;;9.05;5.22;;;-0.10;99.90;;;;;;5084442;27;20545;-61
2022/04/02 06:24:37;;;;;;;6.72;4.88;;;0.00;99.90;;;;;;5083050;28;20560;-61
2022/04/02 06:27:16;;;;;;;7.38;5.53;;;0.00;99.90;;;;;;5084394;28;20549;-61
2022/04/02 06:29:57;;;;;;;8.90;4.82;;;0.10;99.90;;;;;;5132765;27;21084;-60
2022/04/02 06:32:36;;;;;;;10.60;5.20;;;0.10;99.90;;;;;;5083944;27;21103;-61
2022/04/02 06:35:17;;;;;;;13.25;5.25;;;0.20;99.90;;;;;;5103712;27;20576;-61
2022/04/02 06:37:56;;;;;;;9.00;4.40;;;0.20;99.90;;;;;;5084137;27;20557;-61
2022/04/02 06:40:36;;;;;;;12.23;4.72;;;0.30;99.90;;;;;;5080023;27;20587;-61
2022/04/02 06:43:15;;;;;;;10.15;4.63;;;0.50;99.90;;;;;;5135565;27;21061;-60
2022/04/02 06:45:55;;;;;;;7.90;4.60;;;0.50;99.90;;;;;;5123700;27;20552;-60
2022/04/02 06:48:35;;;;;;;4.35;3.90;;;0.50;99.90;;;;;;5073663;27;20553;-61
2022/04/02 06:51:16;;;;;;;5.95;4.05;;;0.50;99.90;;;;;;5080605;28;20558;-61
2022/04/02 06:53:56;;;;;;;6.22;3.65;;;0.40;99.90;;;;;;5082032;27;20624;-62
2022/04/02 06:56:37;;;;;;;7.57;4.43;;;0.40;99.90;;;;;;5082464;28;20597;-62
2022/04/02 06:59:16;;;;;;;5.55;3.60;;;0.30;99.90;;;;;;5128231;27;20557;-61
2022/04/02 07:01:55;;;;;;;5.30;3.85;;;0.40;99.90;;;;;;5143228;27;20546;-60
2022/04/02 07:04:35;;;;;;;4.50;3.50;;;0.40;99.90;;;;;;5106829;22;20903;-61
2022/04/02 07:07:15;;;;;;;4.05;3.70;;;0.50;99.90;;;;;;5144554;27;20542;-61
2022/04/02 07:09:55;;;;;;;4.07;3.75;;;0.60;99.90;;;;;;5124841;27;20551;-61
2022/04/02 07:12:35;;;;;;;3.95;3.33;;;0.50;99.90;;;;;;5145731;27;20577;-61
2022/04/02 07:15:15;;;;;;;6.57;4.07;;;0.60;99.90;;;;;;5067536;27;21036;-61
2022/04/02 07:17:54;;;;;;;4.93;4.53;;;0.60;99.90;;;;;;5079285;27;20581;-61
2022/04/02 07:20:35;;;;;;;4.25;3.95;;;0.70;99.90;;;;;;5126141;27;20548;-61
2022/04/02 07:23:17;;;;;;;4.25;3.80;;;0.80;99.90;;;;;;5088605;27;21923;-61
2022/04/02 07:25:57;;;;;;;4.90;3.90;;;0.90;99.90;;;;;;5102857;27;20547;-61
2022/04/02 07:28:38;;;;;;;6.82;3.88;;;1.10;99.90;;;;;;5146853;27;20564;-61
2022/04/02 07:31:17;;;;;;;4.30;3.45;;;1.30;99.90;;;;;;5125865;27;21028;-61
2022/04/02 07:33:57;;;;;;;7.60;4.07;;;1.40;99.90;;;;;;5097726;27;20567;-60
2022/04/02 07:36:47;;;;;;;4.65;4.10;;;1.60;99.90;;;;;;5126316;27;20551;-58
2022/04/02 07:39:33;;;;;;;7.68;4.65;;;1.60;99.90;;;;;;5146873;27;20558;-58
2022/04/02 07:42:21;;;;;;;5.82;3.92;;;1.40;99.90;;;;;;5105167;27;20554;-61
2022/04/02 07:45:05;;;;;;;6.90;4.25;;;1.50;99.90;;;;;;5083398;22;20742;-60
2022/04/02 07:47:50;;;;;;;9.85;3.60;;;1.70;99.90;;;;;;5083116;28;21332;-60
2022/04/02 07:50:29;;;;;;;8.35;4.60;;;1.60;99.90;;;;;;5102254;27;20549;-61
2022/04/02 07:53:15;;;;;;;4.25;3.85;;;1.60;99.90;;;;;;5124386;27;20555;-60
2022/04/02 07:55:58;;;;;;;4.13;3.72;;;1.60;99.90;;;;;;5075600;27;21326;-61
2022/04/02 07:58:43;;;;;;;4.00;3.40;;;1.80;99.90;;;;;;5103937;27;20545;-59
2022/04/02 08:01:23;;;;;;;4.60;3.83;;;1.70;99.90;;;;;;5103587;27;20545;-60
2022/04/02 08:04:04;;;;;;;6.35;3.80;;;1.50;99.90;;;;;;5082727;28;20671;-61
2022/04/02 08:06:45;;;;;;;9.23;5.22;;;1.20;99.90;;;;;;5084090;27;21140;-62
2022/04/02 08:09:26;;;;;;;5.43;3.80;;;1.50;99.90;;;;;;5082516;27;20569;-61
2022/04/02 08:12:06;;;;;;;5.07;4.00;;;1.90;99.90;;;;;;5136744;27;20544;-60
2022/04/02 08:14:57;;;;;;;4.57;3.53;;;1.80;99.90;;;;;;5075676;28;20560;-60
2022/04/02 08:17:38;;;;;;;4.55;4.15;;;1.50;99.90;;;;;;5104973;27;20685;-60
2022/04/02 08:20:18;;;;;;;8.40;4.78;;;1.30;99.90;;;;;;5083516;28;20680;-59
2022/04/02 08:22:58;;;;;;;4.60;3.60;;;1.30;99.90;;;;;;5105410;27;21245;-60
2022/04/02 08:25:46;;;;;;;4.47;4.07;;;1.40;99.90;;;;;;5125427;27;20556;-60
2022/04/02 08:28:32;;;;;;;4.57;3.80;;;1.40;99.90;;;;;;5084930;27;21328;-61
2022/04/02 08:31:21;;;;;;;4.10;3.80;;;1.10;99.90;;;;;;5104139;27;20538;-60
2022/04/02 08:34:08;;;;;;;4.60;4.10;;;0.80;99.90;;;;;;5084268;28;20562;-60
2022/04/02 08:36:52;;;;;;;4.00;3.65;;;0.70;99.90;;;;;;5125884;27;20540;-61
2022/04/02 08:39:39;;;;;;;4.70;3.92;;;0.60;99.90;;;;;;5083350;27;20616;-61
2022/04/02 08:42:53;;;;;;;4.30;4.00;;;0.90;99.90;;;;;;5103230;27;20978;-60
2022/04/02 08:45:34;;;;;;;4.25;3.65;;;1.00;99.90;;;;;;5084747;27;20977;-61
2022/04/02 08:48:25;;;;;;;4.78;4.30;;;1.00;99.90;;;;;;5084894;27;20539;-60
2022/04/02 08:51:25;;;;;;;5.38;4.68;;;1.10;99.90;;;;;;5083590;28;20675;-61
2022/04/02 08:54:07;;;;;;;4.60;4.18;;;1.00;99.90;;;;;;5104718;27;20562;-60
2022/04/02 08:56:49;;;;;;;6.03;3.97;;;1.00;99.90;;;;;;5085266;27;20542;-60
2022/04/02 08:59:37;;;;;;;4.32;3.83;;;1.10;99.90;;;;;;5124164;27;20536;-60
2022/04/02 09:03:06;;;;;;;4.53;4.05;;;1.20;99.90;;;;;;5125494;27;20551;-60
2022/04/02 09:06:00;;;;;;;10.45;8.63;;;1.20;99.90;;;;;;5104321;27;20907;-60
2022/04/02 09:09:04;;;;;;;7.53;4.32;;;1.20;99.90;;;;;;5077884;28;20687;-60
2022/04/02 09:12:08;;;;;;;5.05;3.92;;;1.00;99.90;;;;;;5084461;27;20535;-60
2022/04/02 09:15:07;;;;;;;4.45;4.10;;;1.10;99.90;;;;;;5076234;27;21018;-60
2022/04/02 09:18:01;;;;;;;5.20;4.15;;;1.30;99.90;;;;;;5084464;28;20707;-61
2022/04/02 09:20:53;;;;;;;6.22;3.90;;;1.50;99.90;;;;;;5083141;28;20539;-61
2022/04/02 09:23:44;;;;;;;5.90;4.07;;;1.60;99.90;;;;;;5083851;27;21165;-61
2022/04/02 09:26:52;;;;;;;4.82;4.43;;;1.80;99.90;;;;;;5105962;27;20994;-60
2022/04/02 09:29:43;;;;;;;3.90;3.60;;;1.60;99.90;;;;;;5083550;28;21030;-63
2022/04/02 09:33:08;;;;;;;4.75;4.38;;;1.30;99.90;;;;;;5102861;27;20569;-62
2022/04/02 09:36:18;;;;;;;4.85;4.45;;;1.30;99.90;;;;;;5084294;28;20576;-62
2022/04/02 09:39:06;;;;;;;5.00;4.60;;;1.50;99.90;;;;;;5101578;27;20559;-62
2022/04/02 09:42:16;;;;;;;4.20;3.90;;;1.60;99.90;;;;;;5066606;27;20737;-62
2022/04/02 09:45:03;;;;;;;5.38;4.20;;;1.70;99.90;;;;;;5102896;27;21161;-62
2022/04/02 09:48:04;;;;;;;5.30;3.67;;;1.40;99.90;;;;;;5066937;27;21142;-62
2022/04/02 09:50:46;;;;;;;5.53;3.92;;;1.20;99.90;;;;;;5082827;28;20696;-61
2022/04/02 09:53:29;;;;;;;5.90;3.95;;;1.00;99.90;;;;;;5083779;27;20570;-62
2022/04/02 09:56:27;;;;;;;4.90;3.75;;;1.10;99.90;;;;;;5074746;27;20617;-62
2022/04/02 09:59:19;;;;;;;4.00;3.65;;;1.10;99.90;;;;;;5106730;27;20533;-62
2022/04/02 10:02:04;;;;;;;4.03;3.63;;;1.00;99.90;;;;;;5145804;27;20542;-61
2022/04/02 10:04:53;;;;;;;4.10;3.78;;;1.10;99.90;;;;;;5138411;27;20544;-62
2022/04/02 10:07:41;;;;;;;4.78;4.32;;;1.30;99.90;;;;;;5084326;27;20609;-62
2022/04/02 10:10:25;;;;;;;3.97;3.67;;;1.40;99.90;;;;;;5081170;28;20555;-62
2022/04/02 10:13:06;;;;;;;4.35;3.90;;;1.30;99.90;;;;;;5077530;27;20577;-62
2022/04/02 10:15:49;;;;;;;3.40;3.10;;;1.60;99.90;;;;;;5076030;27;20553;-62
2022/04/02 10:18:28;;;;;;;4.13;3.80;;;1.60;99.90;;;;;;5083794;27;20571;-62
2022/04/02 10:21:10;;;;;;;4.78;3.35;;;1.60;99.90;;;;;;5083647;28;20699;-61
2022/04/02 10:23:53;;;;;;;4.85;4.45;;;1.60;99.90;;;;;;5081319;27;20543;-62
2022/04/02 10:26:38;;;;;;;5.78;4.13;;;1.40;99.90;;;;;;5124951;27;21076;-62
2022/04/02 10:29:40;;;;;;;3.83;3.47;;;1.50;99.90;;;;;;5083226;27;21028;-61
2022/04/02 10:32:50;;;;;;;3.65;3.40;;;1.30;99.90;;;;;;5105118;27;20558;-62
2022/04/02 10:35:30;;;;;;;7.78;3.88;;;1.50;99.90;;;;;;5072984;27;20583;-61
2022/04/02 10:38:11;;;;;;;4.35;3.95;;;1.60;99.90;;;;;;5084538;27;20668;-59
2022/04/02 10:40:52;;;;;;;5.03;3.80;;;1.40;99.90;;;;;;5082461;27;20559;-59
2022/04/02 10:43:37;;;;;;;3.50;3.20;;;1.30;99.90;;;;;;5104333;27;20546;-59
2022/04/02 10:46:20;;;;;;;4.68;3.13;;;1.40;99.90;;;;;;5068161;28;21198;-59
2022/04/02 10:49:01;;;;;;;3.35;3.10;;;1.50;99.90;;;;;;5145246;27;20542;-58
2022/04/02 10:51:43;;;;;;;3.88;3.50;;;1.70;99.90;;;;;;5125006;27;20552;-59
2022/04/02 10:54:28;;;;;;;3.70;3.35;;;2.00;99.90;;;;;;5101052;27;20985;-59
2022/04/02 10:57:07;;;;;;;3.53;3.22;;;2.00;99.90;;;;;;5145840;27;20542;-59
2022/04/02 10:59:48;;;;;;;3.45;3.20;;;2.00;99.90;;;;;;5123864;27;20570;-59
2022/04/02 11:02:41;;;;;;;3.88;3.58;;;2.10;99.90;;;;;;5145834;27;20543;-59
2022/04/02 11:05:22;;;;;;;3.83;3.08;;;2.50;99.90;;;;;;5145393;27;20550;-59
2022/04/02 11:08:06;;;;;;;4.10;3.35;;;2.70;99.90;;;;;;5083636;27;21019;-59
2022/04/02 11:10:49;;;;;;;3.55;3.28;;;3.00;99.90;;;;;;5103290;27;21049;-59
2022/04/02 11:13:33;;;;;;;3.55;3.05;;;3.20;99.90;;;;;;5084067;27;20570;-60
2022/04/02 11:16:16;;;;;;;4.80;2.67;;;3.20;99.90;;;;;;5095757;27;20600;-59
2022/04/02 11:22:05;;;;;;;3.42;2.70;;;3.10;99.90;;;;;;5084181;28;21019;-59
2022/04/02 11:24:56;;;;;;;3.05;2.72;;;3.20;99.90;;;;;;5096350;27;20551;-59
2022/04/02 11:27:40;;;;;;;2.80;2.60;;;3.10;99.90;;;;;;5084505;27;20612;-59
2022/04/02 11:30:20;;;;;;;3.03;2.55;;;3.10;99.90;;;;;;5083141;28;21040;-59
2022/04/02 11:33:06;;;;;;;3.60;2.55;;;3.10;99.90;;;;;;5104981;27;20553;-59
2022/04/02 11:35:52;;;;;;;2.85;2.40;;;3.10;99.90;;;;;;5068937;27;21171;-59
2022/04/02 11:38:39;;;;;;;3.13;2.80;;;3.30;99.90;;;;;;5117444;27;20910;-59
2022/04/02 11:41:22;;;;;;;2.97;2.78;;;3.60;99.90;;;;;;5083439;27;20561;-59
2022/04/02 11:44:08;;;;;;;2.58;2.47;;;4.00;99.90;;;;;;5104244;27;20564;-59
2022/04/02 11:46:55;;;;;;;2.88;2.67;;;3.70;99.90;;;;;;5084260;28;20550;-59
2022/04/02 11:49:37;;;;;;;3.10;2.80;;;3.50;99.90;;;;;;5144991;27;20542;-59
2022/04/02 11:52:17;;;;;;;3.17;2.88;;;3.50;99.90;;;;;;5125825;27;21057;-59
2022/04/02 11:55:01;;;;;;;3.15;2.95;;;3.60;99.90;;;;;;5074769;27;20557;-59
2022/04/02 11:57:57;;;;;;;2.80;2.60;;;3.90;99.90;;;;;;5096306;27;20681;-59
2022/04/02 12:00:39;;;;;;;3.28;3.05;;;4.00;99.90;;;;;;5123902;27;20547;-59
2022/04/02 12:03:27;;;;;;;2.95;2.75;;;4.50;99.90;;;;;;5104441;27;20537;-59
2022/04/02 12:06:12;;;;;;;2.80;2.60;;;5.10;99.90;;;;;;5078013;27;20681;-59
2022/04/02 12:08:54;;;;;;;2.95;2.75;;;5.50;99.90;;;;;;5124013;27;20536;-59
2022/04/02 12:11:33;;;;;;;4.57;3.10;;;5.60;99.90;;;;;;5082967;27;20576;-59
2022/04/02 12:14:27;;;;;;;3.17;2.97;;;5.40;99.90;;;;;;5145182;27;21062;-60
2022/04/02 12:17:11;;;;;;;2.75;2.55;;;5.50;99.90;;;;;;5084285;27;20545;-59
2022/04/02 12:19:55;;;;;;;2.75;2.55;;;5.50;99.90;;;;;;5103076;27;20538;-59
2022/04/02 12:22:36;;;;;;;2.22;2.13;;;5.20;99.90;;;;;;5144032;27;21055;-59
2022/04/02 12:25:21;;;;;;;2.65;2.45;;;4.80;99.90;;;;;;5071981;28;20583;-59
2022/04/02 12:28:08;;;;;;;2.72;2.53;;;4.20;99.90;;;;;;5084277;27;20571;-59
2022/04/02 12:30:51;;;;;;;3.35;3.15;;;4.40;99.90;;;;;;5082629;27;20572;-60
2022/04/02 12:33:31;;;;;;;2.70;2.50;;;4.70;99.90;;;;;;5104420;27;20563;-59
2022/04/02 12:36:11;;;;;;;2.42;2.33;;;5.00;99.90;;;;;;5078684;27;20581;-59
2022/04/02 12:38:59;;;;;;;2.70;2.60;;;5.00;99.90;;;;;;5081081;27;21125;-59
2022/04/02 12:41:48;;;;;;;3.78;2.28;;;4.80;99.90;;;;;;5145060;27;20669;-58
2022/04/02 12:44:27;;;;;;;5.07;4.25;;;4.30;99.90;;;;;;5103191;27;20589;-58
2022/04/02 12:47:14;;;;;;;6.05;5.55;;;4.00;99.90;;;;;;5142940;27;20683;-59
2022/04/02 12:49:54;;;;;;;4.63;4.22;;;4.00;99.90;;;;;;5082704;28;20560;-59
2022/04/02 12:52:44;;;;;;;2.22;2.05;;;4.00;99.90;;;;;;5083955;27;20592;-59
2022/04/02 12:55:25;;;;;;;4.18;3.88;;;4.30;99.90;;;;;;5084277;28;20675;-59
2022/04/02 12:58:10;;;;;;;3.47;3.17;;;4.50;99.90;;;;;;5105060;27;20572;-59
2022/04/02 13:00:50;;;;;;;2.55;2.35;;;4.60;99.90;;;;;;5103900;27;20538;-59
2022/04/02 13:03:34;;;;;;;2.08;1.98;;;4.60;99.90;;;;;;5084185;28;20539;-58
2022/04/02 13:06:20;;;;;;;2.38;2.17;;;4.50;99.90;;;;;;5084947;28;20559;-59
2022/04/02 13:09:04;;;;;;;2.45;2.25;;;4.40;99.90;;;;;;5084356;28;20671;-59
2022/04/02 13:11:55;;;;;;;2.65;2.35;;;4.50;99.90;;;;;;5083872;27;20558;-59
2022/04/02 13:14:42;;;;;;;3.42;3.13;;;4.50;99.90;;;;;;5084202;27;20975;-59
2022/04/02 13:17:23;;;;;;;3.03;2.60;;;4.70;99.90;;;;;;5084804;28;20656;-59
2022/04/02 13:23:01;;;;;;;2.35;2.22;;;4.70;99.90;;;;;;5125533;27;20536;-59
2022/04/02 13:25:54;;;;;;;3.60;3.30;;;4.80;99.90;;;;;;5125109;27;20555;-59
2022/04/02 13:28:48;;;;;;;2.50;2.30;;;5.00;99.90;;;;;;5084871;27;20879;-59
2022/04/02 13:31:35;;;;;;;3.80;2.95;;;5.00;99.90;;;;;;5083152;28;21178;-59
2022/04/02 13:34:19;;;;;;;3.20;2.90;;;4.90;99.90;;;;;;5104359;27;20542;-59
2022/04/02 13:37:19;;;;;;;2.90;2.47;;;4.90;99.90;;;;;;5125363;27;20540;-59
2022/04/02 13:40:02;;;;;;;2.20;2.10;;;4.90;99.90;;;;;;5101850;27;20554;-59
2022/04/02 13:42:50;;;;;;;2.50;2.33;;;4.50;99.90;;;;;;5105092;27;21109;-59
2022/04/02 13:45:34;;;;;;;2.58;2.38;;;4.10;99.90;;;;;;5104690;27;20576;-59
2022/04/02 13:48:21;;;;;;;2.47;2.28;;;3.80;99.90;;;;;;5084733;28;20535;-59
2022/04/02 13:51:09;;;;;;;2.92;2.20;;;3.50;99.90;;;;;;5104002;27;20533;-58
2022/04/02 13:53:55;;;;;;;3.25;2.60;;;3.30;99.90;;;;;;5084826;27;20535;-59
2022/04/02 13:56:38;;;;;;;3.45;2.30;;;3.50;99.90;;;;;;5105164;27;21034;-59
2022/04/02 13:59:27;;;;;;;3.33;3.08;;;3.60;99.90;;;;;;5104327;27;21080;-59
2022/04/02 14:02:06;;;;;;;3.70;2.80;;;3.80;99.90;;;;;;5084952;28;21007;-59
2022/04/02 14:05:00;;;;;;;2.75;2.40;;;3.90;99.90;;;;;;5084801;27;21173;-59
2022/04/02 14:07:53;;;;;;;3.63;2.70;;;4.10;99.90;;;;;;5105252;27;20534;-59
2022/04/02 14:10:37;;;;;;;2.25;2.05;;;4.10;99.90;;;;;;5084245;28;21015;-59
2022/04/02 14:13:22;;;;;;;3.08;2.50;;;3.90;99.90;;;;;;5085639;27;20604;-59
2022/04/02 14:16:03;;;;;;;2.00;1.90;;;3.70;99.90;;;;;;5105290;27;20579;-59
2022/04/02 14:18:44;;;;;;;2.25;2.10;;;3.50;99.90;;;;;;5084910;27;20539;-59
2022/04/02 14:21:30;;;;;;;3.28;2.10;;;3.60;99.90;;;;;;5083946;27;20577;-59
2022/04/02 14:24:17;;;;;;;2.03;1.92;;;3.40;99.90;;;;;;5104762;27;20599;-59